Withamsville, Ohio
Current Conditions -  °F | °C
As of 1:53 PM on Friday 24 Oct 2014 (Local Time) from KLUK Reporting Station
Clear Clear  
Wind Chill: 63°   Ceiling: Unl
Heat Index: 63°   Visibility: 10mi
Dew Point: 43°   Wind: 0mph
Humidity: 48%   Direction: NA
Pressure: 30.09"   Gusts: NA
Location:  39.0659°N, 84.278°W
Report Text: KLUK 241753Z 00000KT 10SM CLR 17/06 A3009 RMK AO2 SLP190 T01720061 10178 20039 58018
Loading
Personal Weather Stations






























Interactive Weather Map
Tropical Storm Tracking
New forecast layout! Learn more

10-Day Weather Forecast

Advertisements
Track Severe Weather on mobile